sensor_id;sensor_type;location;lat;lon;timestamp;temperature;humidity
78886;DHT22;68269;52.514;5.722;2023-04-25T00:00:47;8.90;66.70
78886;DHT22;68269;52.514;5.722;2023-04-25T00:03:18;8.90;66.60
78886;DHT22;68269;52.514;5.722;2023-04-25T00:05:48;8.90;66.60
78886;DHT22;68269;52.514;5.722;2023-04-25T00:08:17;8.90;66.60
78886;DHT22;68269;52.514;5.722;2023-04-25T00:10:49;8.90;66.60
78886;DHT22;68269;52.514;5.722;2023-04-25T00:13:19;8.90;66.60
78886;DHT22;68269;52.514;5.722;2023-04-25T00:15:48;8.90;66.60
78886;DHT22;68269;52.514;5.722;2023-04-25T00:18:17;8.90;66.60
78886;DHT22;68269;52.514;5.722;2023-04-25T00:20:47;8.90;66.60
78886;DHT22;68269;52.514;5.722;2023-04-25T00:23:17;8.80;66.60
78886;DHT22;68269;52.514;5.722;2023-04-25T00:25:49;8.80;66.50
78886;DHT22;68269;52.514;5.722;2023-04-25T00:28:19;8.80;66.60
78886;DHT22;68269;52.514;5.722;2023-04-25T00:30:48;8.60;66.50
78886;DHT22;68269;52.514;5.722;2023-04-25T00:33:17;8.60;66.50
78886;DHT22;68269;52.514;5.722;2023-04-25T00:35:47;8.60;66.40
78886;DHT22;68269;52.514;5.722;2023-04-25T00:38:16;8.60;66.40
78886;DHT22;68269;52.514;5.722;2023-04-25T00:40:45;8.50;66.30
78886;DHT22;68269;52.514;5.722;2023-04-25T00:43:17;8.50;66.30
78886;DHT22;68269;52.514;5.722;2023-04-25T00:45:47;8.50;66.20
78886;DHT22;68269;52.514;5.722;2023-04-25T00:48:17;8.50;66.20
78886;DHT22;68269;52.514;5.722;2023-04-25T00:50:52;8.50;66.10
78886;DHT22;68269;52.514;5.722;2023-04-25T00:53:22;8.50;66.10
78886;DHT22;68269;52.514;5.722;2023-04-25T00:55:52;8.50;66.00
78886;DHT22;68269;52.514;5.722;2023-04-25T00:58:24;8.50;66.00
78886;DHT22;68269;52.514;5.722;2023-04-25T01:00:55;8.50;65.80
78886;DHT22;68269;52.514;5.722;2023-04-25T01:03:25;8.50;65.80
78886;DHT22;68269;52.514;5.722;2023-04-25T01:05:55;8.50;65.80
78886;DHT22;68269;52.514;5.722;2023-04-25T01:08:25;8.50;65.80
78886;DHT22;68269;52.514;5.722;2023-04-25T01:10:54;8.50;65.80
78886;DHT22;68269;52.514;5.722;2023-04-25T01:13:26;8.50;65.80
78886;DHT22;68269;52.514;5.722;2023-04-25T01:15:56;8.50;65.80
78886;DHT22;68269;52.514;5.722;2023-04-25T01:18:25;8.50;65.70
78886;DHT22;68269;52.514;5.722;2023-04-25T01:20:55;8.50;65.70
78886;DHT22;68269;52.514;5.722;2023-04-25T01:23:27;8.50;65.70
78886;DHT22;68269;52.514;5.722;2023-04-25T01:25:56;8.40;65.70
78886;DHT22;68269;52.514;5.722;2023-04-25T01:28:27;8.40;65.70
78886;DHT22;68269;52.514;5.722;2023-04-25T01:30:58;8.40;65.70
78886;DHT22;68269;52.514;5.722;2023-04-25T01:33:27;8.40;65.80
78886;DHT22;68269;52.514;5.722;2023-04-25T01:35:56;8.40;65.80
78886;DHT22;68269;52.514;5.722;2023-04-25T01:38:29;8.40;65.80
78886;DHT22;68269;52.514;5.722;2023-04-25T01:41:00;8.40;65.80
78886;DHT22;68269;52.514;5.722;2023-04-25T01:43:29;8.30;65.80
78886;DHT22;68269;52.514;5.722;2023-04-25T01:45:59;8.30;65.90
78886;DHT22;68269;52.514;5.722;2023-04-25T01:48:28;8.30;65.90
78886;DHT22;68269;52.514;5.722;2023-04-25T01:50:58;8.30;65.90
78886;DHT22;68269;52.514;5.722;2023-04-25T01:53:31;8.30;65.90
78886;DHT22;68269;52.514;5.722;2023-04-25T01:56:02;8.30;65.90
78886;DHT22;68269;52.514;5.722;2023-04-25T01:58:34;8.30;65.80
78886;DHT22;68269;52.514;5.722;2023-04-25T02:01:10;8.30;65.80
78886;DHT22;68269;52.514;5.722;2023-04-25T02:03:45;8.30;65.80
78886;DHT22;68269;52.514;5.722;2023-04-25T02:06:26;8.30;65.80
78886;DHT22;68269;52.514;5.722;2023-04-25T02:09:00;8.30;65.80
78886;DHT22;68269;52.514;5.722;2023-04-25T02:11:29;8.30;65.80
78886;DHT22;68269;52.514;5.722;2023-04-25T02:14:19;8.30;65.80
78886;DHT22;68269;52.514;5.722;2023-04-25T02:17:17;8.30;65.80
78886;DHT22;68269;52.514;5.722;2023-04-25T02:19:47;8.30;65.70
78886;DHT22;68269;52.514;5.722;2023-04-25T02:22:17;8.30;65.60
78886;DHT22;68269;52.514;5.722;2023-04-25T02:24:49;8.30;65.60
78886;DHT22;68269;52.514;5.722;2023-04-25T02:27:18;8.40;65.60
78886;DHT22;68269;52.514;5.722;2023-04-25T02:29:47;8.40;65.60
78886;DHT22;68269;52.514;5.722;2023-04-25T02:32:16;8.40;65.70
78886;DHT22;68269;52.514;5.722;2023-04-25T02:34:47;8.40;65.70
78886;DHT22;68269;52.514;5.722;2023-04-25T02:37:17;8.40;65.80
78886;DHT22;68269;52.514;5.722;2023-04-25T02:39:48;8.30;65.80
78886;DHT22;68269;52.514;5.722;2023-04-25T02:42:18;8.30;65.80
78886;DHT22;68269;52.514;5.722;2023-04-25T02:44:48;8.30;65.90
78886;DHT22;68269;52.514;5.722;2023-04-25T02:47:17;8.30;65.90
78886;DHT22;68269;52.514;5.722;2023-04-25T02:49:46;8.30;65.90
78886;DHT22;68269;52.514;5.722;2023-04-25T02:52:16;8.20;65.90
78886;DHT22;68269;52.514;5.722;2023-04-25T02:54:54;8.20;65.90
78886;DHT22;68269;52.514;5.722;2023-04-25T02:57:24;8.10;65.90
78886;DHT22;68269;52.514;5.722;2023-04-25T02:59:54;8.10;66.00
78886;DHT22;68269;52.514;5.722;2023-04-25T03:02:23;8.10;65.90
78886;DHT22;68269;52.514;5.722;2023-04-25T03:04:52;8.10;65.90
78886;DHT22;68269;52.514;5.722;2023-04-25T03:07:21;8.10;66.00
78886;DHT22;68269;52.514;5.722;2023-04-25T03:09:53;8.10;65.90
78886;DHT22;68269;52.514;5.722;2023-04-25T03:12:23;8.10;65.90
78886;DHT22;68269;52.514;5.722;2023-04-25T03:14:52;8.00;65.90
78886;DHT22;68269;52.514;5.722;2023-04-25T03:17:22;8.00;66.00
78886;DHT22;68269;52.514;5.722;2023-04-25T03:19:51;8.00;66.00
78886;DHT22;68269;52.514;5.722;2023-04-25T03:22:20;8.00;66.00
78886;DHT22;68269;52.514;5.722;2023-04-25T03:24:51;8.00;66.10
78886;DHT22;68269;52.514;5.722;2023-04-25T03:27:22;8.00;66.00
78886;DHT22;68269;52.514;5.722;2023-04-25T03:29:52;8.00;65.90
78886;DHT22;68269;52.514;5.722;2023-04-25T03:32:21;8.00;65.80
78886;DHT22;68269;52.514;5.722;2023-04-25T03:34:50;8.00;65.70
78886;DHT22;68269;52.514;5.722;2023-04-25T03:37:20;8.00;65.70
78886;DHT22;68269;52.514;5.722;2023-04-25T03:39:49;8.00;65.70
78886;DHT22;68269;52.514;5.722;2023-04-25T03:42:18;8.00;65.60
78886;DHT22;68269;52.514;5.722;2023-04-25T03:44:51;8.10;65.50
78886;DHT22;68269;52.514;5.722;2023-04-25T03:47:21;8.10;65.50
78886;DHT22;68269;52.514;5.722;2023-04-25T03:49:51;8.00;65.60
78886;DHT22;68269;52.514;5.722;2023-04-25T03:52:22;8.00;65.60
78886;DHT22;68269;52.514;5.722;2023-04-25T03:54:52;8.00;65.60
78886;DHT22;68269;52.514;5.722;2023-04-25T03:57:23;8.00;65.60
78886;DHT22;68269;52.514;5.722;2023-04-25T03:59:56;8.10;65.50
78886;DHT22;68269;52.514;5.722;2023-04-25T04:02:29;8.10;65.60
78886;DHT22;68269;52.514;5.722;2023-04-25T04:04:59;8.10;65.50
78886;DHT22;68269;52.514;5.722;2023-04-25T04:07:29;8.10;65.60
78886;DHT22;68269;52.514;5.722;2023-04-25T04:10:00;8.10;65.50
78886;DHT22;68269;52.514;5.722;2023-04-25T04:12:36;8.10;65.60
78886;DHT22;68269;52.514;5.722;2023-04-25T04:15:10;8.10;65.60
78886;DHT22;68269;52.514;5.722;2023-04-25T04:17:40;8.00;65.60
78886;DHT22;68269;52.514;5.722;2023-04-25T04:20:10;8.00;65.60
78886;DHT22;68269;52.514;5.722;2023-04-25T04:22:40;8.00;65.60
78886;DHT22;68269;52.514;5.722;2023-04-25T04:25:12;8.00;65.60
78886;DHT22;68269;52.514;5.722;2023-04-25T04:28:20;7.90;65.70
78886;DHT22;68269;52.514;5.722;2023-04-25T04:30:59;7.80;65.70
78886;DHT22;68269;52.514;5.722;2023-04-25T04:33:29;7.80;65.80
78886;DHT22;68269;52.514;5.722;2023-04-25T04:36:03;7.80;65.90
78886;DHT22;68269;52.514;5.722;2023-04-25T04:38:33;7.80;65.90
78886;DHT22;68269;52.514;5.722;2023-04-25T04:41:04;7.80;65.90
78886;DHT22;68269;52.514;5.722;2023-04-25T04:43:48;7.80;65.90
78886;DHT22;68269;52.514;5.722;2023-04-25T04:46:45;7.80;65.90
78886;DHT22;68269;52.514;5.722;2023-04-25T04:49:31;7.80;65.80
78886;DHT22;68269;52.514;5.722;2023-04-25T04:52:26;7.80;65.80
78886;DHT22;68269;52.514;5.722;2023-04-25T04:55:03;7.80;65.80
78886;DHT22;68269;52.514;5.722;2023-04-25T04:57:53;7.80;65.80
78886;DHT22;68269;52.514;5.722;2023-04-25T05:00:52;7.80;65.90
78886;DHT22;68269;52.514;5.722;2023-04-25T05:03:36;7.80;65.90
78886;DHT22;68269;52.514;5.722;2023-04-25T05:06:06;7.80;66.00
78886;DHT22;68269;52.514;5.722;2023-04-25T05:09:02;7.80;66.00
78886;DHT22;68269;52.514;5.722;2023-04-25T05:11:42;7.80;66.10
78886;DHT22;68269;52.514;5.722;2023-04-25T05:14:49;7.80;66.00
78886;DHT22;68269;52.514;5.722;2023-04-25T05:17:52;7.80;66.10
78886;DHT22;68269;52.514;5.722;2023-04-25T05:20:35;7.80;66.10
78886;DHT22;68269;52.514;5.722;2023-04-25T05:23:42;7.80;66.10
78886;DHT22;68269;52.514;5.722;2023-04-25T05:26:30;7.80;66.00
78886;DHT22;68269;52.514;5.722;2023-04-25T05:29:14;7.90;65.90
78886;DHT22;68269;52.514;5.722;2023-04-25T05:32:00;8.00;65.90
78886;DHT22;68269;52.514;5.722;2023-04-25T05:34:30;8.00;65.80
78886;DHT22;68269;52.514;5.722;2023-04-25T05:37:05;8.00;65.80
78886;DHT22;68269;52.514;5.722;2023-04-25T05:39:40;8.10;65.80
78886;DHT22;68269;52.514;5.722;2023-04-25T05:42:15;8.20;65.70
78886;DHT22;68269;52.514;5.722;2023-04-25T05:45:14;8.20;65.60
78886;DHT22;68269;52.514;5.722;2023-04-25T05:47:52;8.30;65.50
78886;DHT22;68269;52.514;5.722;2023-04-25T05:50:40;8.40;65.40
78886;DHT22;68269;52.514;5.722;2023-04-25T05:53:35;8.40;65.40
78886;DHT22;68269;52.514;5.722;2023-04-25T05:56:04;8.30;65.50
78886;DHT22;68269;52.514;5.722;2023-04-25T05:58:34;8.30;65.40
78886;DHT22;68269;52.514;5.722;2023-04-25T06:01:04;8.20;65.40
78886;DHT22;68269;52.514;5.722;2023-04-25T06:03:33;8.20;65.40
78886;DHT22;68269;52.514;5.722;2023-04-25T06:06:05;8.20;65.50
78886;DHT22;68269;52.514;5.722;2023-04-25T06:08:36;8.20;65.40
78886;DHT22;68269;52.514;5.722;2023-04-25T06:11:06;8.20;65.40
78886;DHT22;68269;52.514;5.722;2023-04-25T06:13:35;8.20;65.40
78886;DHT22;68269;52.514;5.722;2023-04-25T06:16:06;8.20;65.30
78886;DHT22;68269;52.514;5.722;2023-04-25T06:18:36;8.20;65.30
78886;DHT22;68269;52.514;5.722;2023-04-25T06:21:05;8.20;65.30
78886;DHT22;68269;52.514;5.722;2023-04-25T06:23:37;8.20;65.20
78886;DHT22;68269;52.514;5.722;2023-04-25T06:26:08;8.30;65.10
78886;DHT22;68269;52.514;5.722;2023-04-25T06:28:40;8.30;65.00
78886;DHT22;68269;52.514;5.722;2023-04-25T06:31:09;8.40;64.90
78886;DHT22;68269;52.514;5.722;2023-04-25T06:33:40;8.50;64.80
78886;DHT22;68269;52.514;5.722;2023-04-25T06:36:09;8.50;64.80
78886;DHT22;68269;52.514;5.722;2023-04-25T06:38:41;8.60;64.80
78886;DHT22;68269;52.514;5.722;2023-04-25T06:41:11;8.60;64.70
78886;DHT22;68269;52.514;5.722;2023-04-25T06:43:41;8.60;64.60
78886;DHT22;68269;52.514;5.722;2023-04-25T06:46:24;8.60;64.60
78886;DHT22;68269;52.514;5.722;2023-04-25T06:48:55;8.60;64.60
78886;DHT22;68269;52.514;5.722;2023-04-25T06:51:24;8.60;64.70
78886;DHT22;68269;52.514;5.722;2023-04-25T06:53:58;8.60;64.70
78886;DHT22;68269;52.514;5.722;2023-04-25T06:56:34;8.60;64.70
78886;DHT22;68269;52.514;5.722;2023-04-25T06:59:08;8.60;64.80
78886;DHT22;68269;52.514;5.722;2023-04-25T07:01:39;8.50;64.80
78886;DHT22;68269;52.514;5.722;2023-04-25T07:04:16;8.30;65.00
78886;DHT22;68269;52.514;5.722;2023-04-25T07:06:50;8.10;65.20
78886;DHT22;68269;52.514;5.722;2023-04-25T07:09:29;8.00;65.30
78886;DHT22;68269;52.514;5.722;2023-04-25T07:12:00;8.00;65.40
78886;DHT22;68269;52.514;5.722;2023-04-25T07:14:30;8.00;65.40
78886;DHT22;68269;52.514;5.722;2023-04-25T07:17:00;8.00;65.30
78886;DHT22;68269;52.514;5.722;2023-04-25T07:19:31;8.00;65.30
78886;DHT22;68269;52.514;5.722;2023-04-25T07:22:02;8.00;65.20
78886;DHT22;68269;52.514;5.722;2023-04-25T07:24:35;8.00;65.20
78886;DHT22;68269;52.514;5.722;2023-04-25T07:27:05;8.10;65.10
78886;DHT22;68269;52.514;5.722;2023-04-25T07:29:55;8.20;65.00
78886;DHT22;68269;52.514;5.722;2023-04-25T07:32:25;8.30;64.90
78886;DHT22;68269;52.514;5.722;2023-04-25T07:34:55;8.30;64.80
78886;DHT22;68269;52.514;5.722;2023-04-25T07:37:24;8.40;64.80
78886;DHT22;68269;52.514;5.722;2023-04-25T07:40:09;8.50;64.60
78886;DHT22;68269;52.514;5.722;2023-04-25T07:42:43;8.60;64.50
78886;DHT22;68269;52.514;5.722;2023-04-25T07:45:17;8.70;64.40
78886;DHT22;68269;52.514;5.722;2023-04-25T07:47:46;8.90;64.30
78886;DHT22;68269;52.514;5.722;2023-04-25T07:50:16;9.00;64.10
78886;DHT22;68269;52.514;5.722;2023-04-25T07:52:47;9.20;63.90
78886;DHT22;68269;52.514;5.722;2023-04-25T07:55:25;9.40;63.90
78886;DHT22;68269;52.514;5.722;2023-04-25T07:58:07;9.50;63.90
78886;DHT22;68269;52.514;5.722;2023-04-25T08:00:39;9.60;63.90
78886;DHT22;68269;52.514;5.722;2023-04-25T08:03:44;9.70;63.80
78886;DHT22;68269;52.514;5.722;2023-04-25T08:06:20;9.70;63.80
78886;DHT22;68269;52.514;5.722;2023-04-25T08:09:03;9.80;63.70
78886;DHT22;68269;52.514;5.722;2023-04-25T08:11:40;9.80;63.70
78886;DHT22;68269;52.514;5.722;2023-04-25T08:14:12;9.60;63.80
78886;DHT22;68269;52.514;5.722;2023-04-25T08:16:43;9.40;64.10
78886;DHT22;68269;52.514;5.722;2023-04-25T08:19:13;9.20;64.30
78886;DHT22;68269;52.514;5.722;2023-04-25T08:21:43;9.10;64.40
78886;DHT22;68269;52.514;5.722;2023-04-25T08:24:16;9.00;64.50
78886;DHT22;68269;52.514;5.722;2023-04-25T08:26:48;8.90;64.50
78886;DHT22;68269;52.514;5.722;2023-04-25T08:29:20;8.90;64.50
78886;DHT22;68269;52.514;5.722;2023-04-25T08:31:52;8.90;64.50
78886;DHT22;68269;52.514;5.722;2023-04-25T08:34:21;8.90;64.40
78886;DHT22;68269;52.514;5.722;2023-04-25T08:36:52;9.00;64.30
78886;DHT22;68269;52.514;5.722;2023-04-25T08:39:42;9.00;64.20
78886;DHT22;68269;52.514;5.722;2023-04-25T08:42:41;9.20;64.10
78886;DHT22;68269;52.514;5.722;2023-04-25T08:45:11;9.20;64.00
78886;DHT22;68269;52.514;5.722;2023-04-25T08:47:44;9.40;64.00
78886;DHT22;68269;52.514;5.722;2023-04-25T08:50:15;9.40;63.90
78886;DHT22;68269;52.514;5.722;2023-04-25T08:52:47;9.40;63.70
78886;DHT22;68269;52.514;5.722;2023-04-25T08:55:19;9.60;63.50
78886;DHT22;68269;52.514;5.722;2023-04-25T08:57:59;9.70;63.30
78886;DHT22;68269;52.514;5.722;2023-04-25T09:00:29;9.90;63.10
78886;DHT22;68269;52.514;5.722;2023-04-25T09:02:59;10.00;62.90
78886;DHT22;68269;52.514;5.722;2023-04-25T09:05:32;10.20;62.60
78886;DHT22;68269;52.514;5.722;2023-04-25T09:08:02;10.30;62.50
78886;DHT22;68269;52.514;5.722;2023-04-25T09:10:31;10.60;62.30
78886;DHT22;68269;52.514;5.722;2023-04-25T09:13:09;10.70;62.20
78886;DHT22;68269;52.514;5.722;2023-04-25T09:16:02;10.90;62.10
78886;DHT22;68269;52.514;5.722;2023-04-25T09:18:53;10.90;62.00
78886;DHT22;68269;52.514;5.722;2023-04-25T09:21:23;10.90;62.00
78886;DHT22;68269;52.514;5.722;2023-04-25T09:23:52;10.80;62.10
78886;DHT22;68269;52.514;5.722;2023-04-25T09:26:21;10.90;62.10
78886;DHT22;68269;52.514;5.722;2023-04-25T09:29:05;10.90;62.00
78886;DHT22;68269;52.514;5.722;2023-04-25T09:31:38;11.10;61.60
78886;DHT22;68269;52.514;5.722;2023-04-25T09:34:10;11.20;61.50
78886;DHT22;68269;52.514;5.722;2023-04-25T09:36:46;11.10;61.30
78886;DHT22;68269;52.514;5.722;2023-04-25T09:39:21;11.10;61.30
78886;DHT22;68269;52.514;5.722;2023-04-25T09:42:00;11.10;61.20
78886;DHT22;68269;52.514;5.722;2023-04-25T09:44:32;11.20;61.00
78886;DHT22;68269;52.514;5.722;2023-04-25T09:47:02;11.20;60.80
78886;DHT22;68269;52.514;5.722;2023-04-25T09:49:32;11.30;60.70
78886;DHT22;68269;52.514;5.722;2023-04-25T09:52:05;11.50;60.50
78886;DHT22;68269;52.514;5.722;2023-04-25T09:54:41;11.50;60.40
78886;DHT22;68269;52.514;5.722;2023-04-25T09:57:16;11.70;60.30
78886;DHT22;68269;52.514;5.722;2023-04-25T09:59:50;11.70;60.30
78886;DHT22;68269;52.514;5.722;2023-04-25T10:02:22;11.90;60.10
78886;DHT22;68269;52.514;5.722;2023-04-25T10:04:55;11.90;60.10
78886;DHT22;68269;52.514;5.722;2023-04-25T10:07:30;12.00;60.00
78886;DHT22;68269;52.514;5.722;2023-04-25T10:10:02;12.00;60.00
78886;DHT22;68269;52.514;5.722;2023-04-25T10:12:33;12.10;59.80
78886;DHT22;68269;52.514;5.722;2023-04-25T10:15:06;12.20;59.70
78886;DHT22;68269;52.514;5.722;2023-04-25T10:17:36;12.30;59.70
78886;DHT22;68269;52.514;5.722;2023-04-25T10:20:07;12.30;59.60
78886;DHT22;68269;52.514;5.722;2023-04-25T10:22:41;12.20;59.70
78886;DHT22;68269;52.514;5.722;2023-04-25T10:25:11;12.20;59.70
78886;DHT22;68269;52.514;5.722;2023-04-25T10:27:41;12.40;59.60
78886;DHT22;68269;52.514;5.722;2023-04-25T10:30:14;12.50;59.30
78886;DHT22;68269;52.514;5.722;2023-04-25T10:32:44;12.50;59.30
78886;DHT22;68269;52.514;5.722;2023-04-25T10:35:17;12.30;59.60
78886;DHT22;68269;52.514;5.722;2023-04-25T10:38:00;12.00;59.90
78886;DHT22;68269;52.514;5.722;2023-04-25T10:40:32;11.90;60.20
78886;DHT22;68269;52.514;5.722;2023-04-25T10:46:13;11.80;60.30
78886;DHT22;68269;52.514;5.722;2023-04-25T10:48:47;11.90;60.10
78886;DHT22;68269;52.514;5.722;2023-04-25T10:51:19;12.10;59.80
78886;DHT22;68269;52.514;5.722;2023-04-25T10:53:59;12.40;59.50
78886;DHT22;68269;52.514;5.722;2023-04-25T10:56:29;12.50;59.20
78886;DHT22;68269;52.514;5.722;2023-04-25T10:59:09;12.60;59.10
78886;DHT22;68269;52.514;5.722;2023-04-25T11:01:43;12.80;58.90
78886;DHT22;68269;52.514;5.722;2023-04-25T11:04:23;13.00;58.80
78886;DHT22;68269;52.514;5.722;2023-04-25T11:07:02;13.10;58.70
78886;DHT22;68269;52.514;5.722;2023-04-25T11:09:35;13.10;58.60
78886;DHT22;68269;52.514;5.722;2023-04-25T11:12:07;13.00;58.80
78886;DHT22;68269;52.514;5.722;2023-04-25T11:14:37;13.10;58.70
78886;DHT22;68269;52.514;5.722;2023-04-25T11:17:09;13.00;58.70
78886;DHT22;68269;52.514;5.722;2023-04-25T11:19:39;13.10;58.50
78886;DHT22;68269;52.514;5.722;2023-04-25T11:22:10;13.20;58.30
78886;DHT22;68269;52.514;5.722;2023-04-25T11:24:39;13.30;58.20
78886;DHT22;68269;52.514;5.722;2023-04-25T11:27:09;13.30;58.10
78886;DHT22;68269;52.514;5.722;2023-04-25T11:29:38;13.40;58.10
78886;DHT22;68269;52.514;5.722;2023-04-25T11:32:10;13.50;58.10
78886;DHT22;68269;52.514;5.722;2023-04-25T11:34:39;13.70;57.90
78886;DHT22;68269;52.514;5.722;2023-04-25T11:37:11;13.90;57.90
78886;DHT22;68269;52.514;5.722;2023-04-25T11:39:44;13.90;57.80
78886;DHT22;68269;52.514;5.722;2023-04-25T11:42:15;14.00;57.60
78886;DHT22;68269;52.514;5.722;2023-04-25T11:44:44;14.10;57.60
78886;DHT22;68269;52.514;5.722;2023-04-25T11:47:16;14.20;57.40
78886;DHT22;68269;52.514;5.722;2023-04-25T11:49:45;14.20;57.30
78886;DHT22;68269;52.514;5.722;2023-04-25T11:52:15;14.30;57.30
78886;DHT22;68269;52.514;5.722;2023-04-25T11:54:44;14.30;57.20
78886;DHT22;68269;52.514;5.722;2023-04-25T11:57:14;14.40;57.20
78886;DHT22;68269;52.514;5.722;2023-04-25T11:59:43;14.60;57.10
78886;DHT22;68269;52.514;5.722;2023-04-25T12:02:26;14.70;57.00
78886;DHT22;68269;52.514;5.722;2023-04-25T12:04:59;14.70;56.90
78886;DHT22;68269;52.514;5.722;2023-04-25T12:07:29;14.50;57.20
78886;DHT22;68269;52.514;5.722;2023-04-25T12:09:59;14.30;57.60
78886;DHT22;68269;52.514;5.722;2023-04-25T12:12:32;14.30;57.60
78886;DHT22;68269;52.514;5.722;2023-04-25T12:15:12;14.50;57.30
78886;DHT22;68269;52.514;5.722;2023-04-25T12:17:48;14.70;57.00
78886;DHT22;68269;52.514;5.722;2023-04-25T12:20:20;14.80;56.70
78886;DHT22;68269;52.514;5.722;2023-04-25T12:22:50;14.90;56.50
78886;DHT22;68269;52.514;5.722;2023-04-25T12:25:36;15.00;56.40
78886;DHT22;68269;52.514;5.722;2023-04-25T12:28:13;15.00;56.30
78886;DHT22;68269;52.514;5.722;2023-04-25T12:30:57;14.80;56.50
78886;DHT22;68269;52.514;5.722;2023-04-25T12:33:32;14.30;56.70
78886;DHT22;68269;52.514;5.722;2023-04-25T12:36:03;13.90;57.10
78886;DHT22;68269;52.514;5.722;2023-04-25T12:38:37;13.60;57.40
78886;DHT22;68269;52.514;5.722;2023-04-25T12:41:06;13.50;57.40
78886;DHT22;68269;52.514;5.722;2023-04-25T12:43:36;13.30;57.40
78886;DHT22;68269;52.514;5.722;2023-04-25T12:46:05;13.30;57.30
78886;DHT22;68269;52.514;5.722;2023-04-25T12:48:37;13.40;57.00
78886;DHT22;68269;52.514;5.722;2023-04-25T12:51:07;13.50;56.70
78886;DHT22;68269;52.514;5.722;2023-04-25T12:53:36;13.70;56.40
78886;DHT22;68269;52.514;5.722;2023-04-25T12:56:07;14.10;55.90
78886;DHT22;68269;52.514;5.722;2023-04-25T12:58:37;14.30;55.70
78886;DHT22;68269;52.514;5.722;2023-04-25T13:01:06;14.00;55.90
78886;DHT22;68269;52.514;5.722;2023-04-25T13:03:38;13.70;56.30
78886;DHT22;68269;52.514;5.722;2023-04-25T13:06:07;13.80;56.20
78886;DHT22;68269;52.514;5.722;2023-04-25T13:08:37;14.00;56.10
78886;DHT22;68269;52.514;5.722;2023-04-25T13:11:07;14.30;55.70
78886;DHT22;68269;52.514;5.722;2023-04-25T13:13:37;14.70;55.30
78886;DHT22;68269;52.514;5.722;2023-04-25T13:16:07;15.00;55.10
78886;DHT22;68269;52.514;5.722;2023-04-25T13:18:39;15.00;55.10
78886;DHT22;68269;52.514;5.722;2023-04-25T13:21:09;15.00;55.30
78886;DHT22;68269;52.514;5.722;2023-04-25T13:23:40;15.10;55.30
78886;DHT22;68269;52.514;5.722;2023-04-25T13:26:10;15.20;55.20
78886;DHT22;68269;52.514;5.722;2023-04-25T13:28:40;15.30;55.10
78886;DHT22;68269;52.514;5.722;2023-04-25T13:31:09;15.40;55.00
78886;DHT22;68269;52.514;5.722;2023-04-25T13:33:41;15.60;54.80
78886;DHT22;68269;52.514;5.722;2023-04-25T13:36:10;15.80;54.70
78886;DHT22;68269;52.514;5.722;2023-04-25T13:38:40;16.00;54.60
78886;DHT22;68269;52.514;5.722;2023-04-25T13:41:10;16.20;54.40
78886;DHT22;68269;52.514;5.722;2023-04-25T13:43:44;16.40;54.30
78886;DHT22;68269;52.514;5.722;2023-04-25T13:46:14;16.40;54.30
78886;DHT22;68269;52.514;5.722;2023-04-25T13:48:47;16.40;54.20
78886;DHT22;68269;52.514;5.722;2023-04-25T13:51:16;16.60;54.10
78886;DHT22;68269;52.514;5.722;2023-04-25T13:53:46;16.60;54.10
78886;DHT22;68269;52.514;5.722;2023-04-25T13:56:16;16.60;54.00
78886;DHT22;68269;52.514;5.722;2023-04-25T13:58:45;16.40;54.30
78886;DHT22;68269;52.514;5.722;2023-04-25T14:01:15;15.80;54.50
78886;DHT22;68269;52.514;5.722;2023-04-25T14:03:47;15.30;54.80
78886;DHT22;68269;52.514;5.722;2023-04-25T14:06:16;15.00;55.00
78886;DHT22;68269;52.514;5.722;2023-04-25T14:08:49;15.00;54.90
78886;DHT22;68269;52.514;5.722;2023-04-25T14:11:18;15.30;54.40
78886;DHT22;68269;52.514;5.722;2023-04-25T14:13:47;15.40;54.20
78886;DHT22;68269;52.514;5.722;2023-04-25T14:16:17;15.30;54.10
78886;DHT22;68269;52.514;5.722;2023-04-25T14:18:49;15.00;54.20
78886;DHT22;68269;52.514;5.722;2023-04-25T14:21:18;14.90;54.10
78886;DHT22;68269;52.514;5.722;2023-04-25T14:23:47;14.80;54.10
78886;DHT22;68269;52.514;5.722;2023-04-25T14:26:17;14.70;54.10
78886;DHT22;68269;52.514;5.722;2023-04-25T14:28:46;14.80;53.90
78886;DHT22;68269;52.514;5.722;2023-04-25T14:31:15;14.90;53.60
78886;DHT22;68269;52.514;5.722;2023-04-25T14:33:45;15.10;53.20
78886;DHT22;68269;52.514;5.722;2023-04-25T14:36:16;15.30;53.00
78886;DHT22;68269;52.514;5.722;2023-04-25T14:38:46;15.30;52.90
78886;DHT22;68269;52.514;5.722;2023-04-25T14:41:15;15.60;52.70
78886;DHT22;68269;52.514;5.722;2023-04-25T14:43:45;15.80;52.50
78886;DHT22;68269;52.514;5.722;2023-04-25T14:46:14;16.20;52.40
78886;DHT22;68269;52.514;5.722;2023-04-25T14:48:43;16.00;52.70
78886;DHT22;68269;52.514;5.722;2023-04-25T14:51:15;15.80;53.20
78886;DHT22;68269;52.514;5.722;2023-04-25T14:53:45;15.60;53.40
78886;DHT22;68269;52.514;5.722;2023-04-25T14:56:14;15.50;53.60
78886;DHT22;68269;52.514;5.722;2023-04-25T14:58:43;15.50;53.70
78886;DHT22;68269;52.514;5.722;2023-04-25T15:01:14;15.60;53.70
78886;DHT22;68269;52.514;5.722;2023-04-25T15:03:43;15.60;53.60
78886;DHT22;68269;52.514;5.722;2023-04-25T15:06:12;15.40;53.70
78886;DHT22;68269;52.514;5.722;2023-04-25T15:08:44;15.20;54.00
78886;DHT22;68269;52.514;5.722;2023-04-25T15:11:13;14.80;54.10
78886;DHT22;68269;52.514;5.722;2023-04-25T15:13:43;14.50;54.40
78886;DHT22;68269;52.514;5.722;2023-04-25T15:16:12;14.20;54.50
78886;DHT22;68269;52.514;5.722;2023-04-25T15:18:41;14.00;54.60
78886;DHT22;68269;52.514;5.722;2023-04-25T15:21:11;13.70;54.50
78886;DHT22;68269;52.514;5.722;2023-04-25T15:23:40;13.50;54.70
78886;DHT22;68269;52.514;5.722;2023-04-25T15:26:12;13.20;54.80
78886;DHT22;68269;52.514;5.722;2023-04-25T15:28:41;13.10;54.90
78886;DHT22;68269;52.514;5.722;2023-04-25T15:31:11;13.00;54.90
78886;DHT22;68269;52.514;5.722;2023-04-25T15:33:40;12.90;54.80
78886;DHT22;68269;52.514;5.722;2023-04-25T15:36:09;12.70;54.80
78886;DHT22;68269;52.514;5.722;2023-04-25T15:38:39;12.50;54.80
78886;DHT22;68269;52.514;5.722;2023-04-25T15:41:08;12.50;54.80
78886;DHT22;68269;52.514;5.722;2023-04-25T15:43:40;12.50;54.80
78886;DHT22;68269;52.514;5.722;2023-04-25T15:46:09;12.20;54.90
78886;DHT22;68269;52.514;5.722;2023-04-25T15:48:39;12.30;54.70
78886;DHT22;68269;52.514;5.722;2023-04-25T15:51:08;12.30;54.60
78886;DHT22;68269;52.514;5.722;2023-04-25T15:53:38;12.50;54.30
78886;DHT22;68269;52.514;5.722;2023-04-25T15:56:07;12.60;54.20
78886;DHT22;68269;52.514;5.722;2023-04-25T15:58:39;12.70;54.20
78886;DHT22;68269;52.514;5.722;2023-04-25T16:01:09;12.70;54.20
78886;DHT22;68269;52.514;5.722;2023-04-25T16:03:38;12.80;54.30
78886;DHT22;68269;52.514;5.722;2023-04-25T16:06:08;13.10;54.10
78886;DHT22;68269;52.514;5.722;2023-04-25T16:08:37;13.60;53.80
78886;DHT22;68269;52.514;5.722;2023-04-25T16:11:07;13.90;53.50
78886;DHT22;68269;52.514;5.722;2023-04-25T16:13:42;14.00;53.40
78886;DHT22;68269;52.514;5.722;2023-04-25T16:16:11;14.40;53.30
78886;DHT22;68269;52.514;5.722;2023-04-25T16:18:40;14.50;53.20